Alamo, GA

21:47 EDT le 27 Mars 2015 (GMT -0400)
Heart Of Georgia Regional | | Change Station
CLOSE
Current Station
Aéroport
Location: Eastman,
Altitude: 305 ft
Stations météo à proximité

Alt. 305 ft 32.21 °N, 83.13 °W | Updated 12 minutes ago

Ciel dégagé
Ciel dégagé
55 ° F
Paraît 55 ° F
N
6
Vent Variable Vent de ONO

Aujourd'hui
Haut(e) -- | Bas -- ° F
--% Risque de précip.
Hier
Haut(e) -- | Bas -- ° F
Precip. -- pouce
7:26 AM 7:47 PM
Premier quartier, 57% visible
Pression 29.91 pouce
Visibilité 10.0 Miles terrestres
Nuages Ciel dégagé
Point de rosée 35 ° F
Humidité 47%
Précipitations 0.00 pouce
Profondeur de la couche neigeuse Non disponible.
UV 0 sur 12
Pollen 9.90 sur 12
Qualité de l'air Non disponible.
Flu Activity Non disponible.
METAR KEZM 280135Z AUTO 30005KT 10SM CLR 13/02 A2991 RMK AO2 T01260015

More Conditions Fewer Conditions

Pression 29.91 pouce
Visibilité 10.0 Miles terrestres
Nuages Ciel dégagé
Point de rosée 35 ° F
Humidité 47%
Précipitations 0.00 pouce
Profondeur de la couche neigeuse Non disponible.
UV 0 sur 12
Pollen 9.90 sur 12
Qualité de l'air Non disponible.
Flu Activity Non disponible.
METAR KEZM 280135Z AUTO 30005KT 10SM CLR 13/02 A2991 RMK AO2 T01260015

More Conditions Fewer Conditions

10-Day Weather Forecast

Almanac

Astronomie

Mar. 27, 2015 Lever Coucher
Temps réel
Crépuscule civil
Crépuscule nautique
Crépuscule astronomique
Lune
Durée de lumière visible
Longueur du jour
Tomorrow will be .
, % of the Moon is Illuminated

Extrêmes aujourd'hui

State Highs State Lows

Community

WunderPhotos

Upload Photos

1,808,911 Photos téléchargées !

WunderBlogs® & News

Nearby

Qualité de l'air

  Qualité de l'air Indice de la qualité de l'air Polluant
Not available.

Épaisseur de neige

Station Depth Altitude

Activité sismique

Ville Distance Mag. Time & Date
Minimum magnitude displayed is 2.5.

Températures des eaux côtières

Lieu Température

Stations

Stations météo à proximité

Emplacement de la station Température Refroidissement éolien Point de rosée Humidité Vent Precip. Alt. Mise à jour Type